createdAt,value
2018-11-03T00:00:50.235Z,5.65
2018-11-03T00:03:18.844Z,5.10
2018-11-03T00:05:47.386Z,5.10
2018-11-03T00:08:16.052Z,5.15
2018-11-03T00:10:44.614Z,5.65
2018-11-03T00:13:13.165Z,5.37
2018-11-03T00:15:41.753Z,5.50
2018-11-03T00:18:10.300Z,5.30
2018-11-03T00:20:39.201Z,8.53
2018-11-03T00:23:08.375Z,8.53
2018-11-03T00:25:37.004Z,8.25
2018-11-03T00:28:05.805Z,7.83
2018-11-03T00:30:34.438Z,8.28
2018-11-03T00:33:03.122Z,6.05
2018-11-03T00:35:31.661Z,5.80
2018-11-03T00:38:00.202Z,6.87
2018-11-03T00:40:28.856Z,5.75
2018-11-03T00:42:57.459Z,7.60
2018-11-03T00:45:26.001Z,8.15
2018-11-03T00:47:54.551Z,8.60
2018-11-03T00:50:23.113Z,9.95
2018-11-03T00:52:51.673Z,10.65
2018-11-03T00:55:20.217Z,11.10
2018-11-03T00:57:48.755Z,11.93
2018-11-03T01:00:18.458Z,11.20
2018-11-03T01:02:48.081Z,11.48
2018-11-03T01:05:16.708Z,11.50
2018-11-03T01:07:45.583Z,13.00
2018-11-03T01:10:14.666Z,11.70
2018-11-03T01:12:43.216Z,11.80
2018-11-03T01:15:16.232Z,10.45
2018-11-03T01:17:45.090Z,11.48
2018-11-03T01:20:16.745Z,10.32
2018-11-03T01:22:45.421Z,8.95
2018-11-03T01:25:13.952Z,7.80
2018-11-03T01:27:42.532Z,7.15
2018-11-03T01:30:13.845Z,6.85
2018-11-03T01:32:42.796Z,6.55
2018-11-03T01:35:11.320Z,6.62
2018-11-03T01:37:40.464Z,7.15
2018-11-03T01:40:10.847Z,7.10
2018-11-03T01:42:39.799Z,7.50
2018-11-03T01:45:08.745Z,7.28
2018-11-03T01:47:37.589Z,8.05
2018-11-03T01:50:07.958Z,8.20
2018-11-03T01:52:37.296Z,8.83
2018-11-03T01:55:06.322Z,9.58
2018-11-03T01:57:35.065Z,9.48
2018-11-03T02:00:03.782Z,9.23
2018-11-03T02:02:32.541Z,11.12
2018-11-03T02:05:01.356Z,10.82
2018-11-03T02:07:29.932Z,12.15
2018-11-03T02:09:58.490Z,11.53
2018-11-03T02:12:27.102Z,12.63
2018-11-03T02:14:55.638Z,12.75
2018-11-03T02:17:24.210Z,10.00
2018-11-03T02:19:52.871Z,11.05
2018-11-03T02:22:21.538Z,10.43
2018-11-03T02:24:50.118Z,10.05
2018-11-03T02:27:18.682Z,10.25
2018-11-03T02:29:47.209Z,10.75
2018-11-03T02:32:15.865Z,11.05
2018-11-03T02:34:44.385Z,11.00
2018-11-03T02:37:12.925Z,11.15
2018-11-03T02:39:41.483Z,12.13
2018-11-03T02:42:10.051Z,11.38
2018-11-03T02:44:38.586Z,14.23
2018-11-03T02:47:07.527Z,13.45
2018-11-03T02:49:36.081Z,15.13
2018-11-03T02:52:04.665Z,14.30
2018-11-03T02:54:33.225Z,16.45
2018-11-03T02:57:01.818Z,16.00
2018-11-03T02:59:30.329Z,16.60
2018-11-03T03:01:58.874Z,15.70
2018-11-03T03:04:27.409Z,16.67
2018-11-03T03:06:56.025Z,16.50
2018-11-03T03:09:24.563Z,17.35
2018-11-03T03:11:53.225Z,14.65
2018-11-03T03:14:21.775Z,15.43
2018-11-03T03:16:50.510Z,17.10
2018-11-03T03:19:19.065Z,15.03
2018-11-03T03:21:47.634Z,14.73
2018-11-03T03:24:16.213Z,14.23
2018-11-03T03:26:44.747Z,14.40
2018-11-03T03:29:13.384Z,13.98
2018-11-03T03:31:41.817Z,14.38
2018-11-03T03:34:10.365Z,14.43
2018-11-03T03:36:38.893Z,13.65
2018-11-03T03:39:09.110Z,12.55
2018-11-03T03:41:37.713Z,13.00
2018-11-03T03:44:06.318Z,12.47
2018-11-03T03:46:35.173Z,11.57
2018-11-03T03:49:03.729Z,12.70
2018-11-03T03:51:32.277Z,12.73
2018-11-03T03:54:00.885Z,12.00
2018-11-03T03:56:29.450Z,13.38
2018-11-03T03:58:57.966Z,13.83
2018-11-03T04:01:26.510Z,14.95
2018-11-03T04:03:55.018Z,13.90
2018-11-03T04:06:23.573Z,14.65
2018-11-03T04:08:52.111Z,14.63
2018-11-03T04:11:20.654Z,14.93
2018-11-03T04:13:49.540Z,15.43
2018-11-03T04:16:18.129Z,16.35
2018-11-03T04:18:46.643Z,16.73
2018-11-03T04:21:31.798Z,16.35
2018-11-03T04:24:00.346Z,17.05
2018-11-03T04:26:30.106Z,17.15
2018-11-03T04:28:59.248Z,17.50
2018-11-03T04:31:28.362Z,18.30
2018-11-03T04:33:57.251Z,17.67
2018-11-03T04:36:25.850Z,17.20
2018-11-03T04:38:54.373Z,18.87
2018-11-03T04:41:22.922Z,16.97
2018-11-03T04:43:51.493Z,18.40
2018-11-03T04:46:20.137Z,18.60
2018-11-03T04:48:48.747Z,18.45
2018-11-03T04:51:17.405Z,18.30
2018-11-03T04:53:45.950Z,19.05
2018-11-03T04:56:14.472Z,18.92
2018-11-03T04:58:43.021Z,19.30
2018-11-03T05:01:11.541Z,18.35
2018-11-03T05:03:40.101Z,18.92
2018-11-03T05:06:08.621Z,19.95
2018-11-03T05:08:37.197Z,18.10
2018-11-03T05:11:06.013Z,27.42
2018-11-03T05:13:34.774Z,28.87
2018-11-03T05:16:03.300Z,26.70
2018-11-03T05:18:31.885Z,26.33
2018-11-03T05:21:00.440Z,22.42
2018-11-03T05:23:28.946Z,18.12
2018-11-03T05:25:57.494Z,19.05
2018-11-03T05:28:26.053Z,18.80
2018-11-03T05:30:54.621Z,20.10
2018-11-03T05:33:23.155Z,19.37
2018-11-03T05:35:51.765Z,19.90
2018-11-03T05:38:20.277Z,18.67
2018-11-03T05:40:48.825Z,18.48
2018-11-03T05:43:17.372Z,17.95
2018-11-03T05:45:45.917Z,17.12
2018-11-03T05:48:14.490Z,16.93
2018-11-03T05:50:43.073Z,16.85
2018-11-03T05:53:11.657Z,15.15
2018-11-03T05:55:40.342Z,15.95
2018-11-03T05:58:08.854Z,17.25
2018-11-03T06:00:37.526Z,16.57
2018-11-03T06:03:06.198Z,16.87
2018-11-03T06:05:34.753Z,17.02
2018-11-03T06:08:03.361Z,16.10
2018-11-03T06:10:32.786Z,16.70
2018-11-03T06:13:01.441Z,16.82
2018-11-03T06:15:30.026Z,16.17
2018-11-03T06:17:58.589Z,15.60
2018-11-03T06:20:27.393Z,14.20
2018-11-03T06:22:56.068Z,15.80
2018-11-03T06:25:24.534Z,13.20
2018-11-03T06:27:53.126Z,16.37
2018-11-03T06:30:21.663Z,13.83
2018-11-03T06:32:50.361Z,16.10
2018-11-03T06:35:18.909Z,13.85
2018-11-03T06:37:47.429Z,13.88
2018-11-03T06:40:15.964Z,14.63
2018-11-03T06:42:44.493Z,13.25
2018-11-03T06:45:13.034Z,15.10
2018-11-03T06:47:41.661Z,15.10
2018-11-03T06:50:10.426Z,14.35
2018-11-03T06:52:38.993Z,13.72
2018-11-03T06:55:07.974Z,13.93
2018-11-03T06:57:36.630Z,13.90
2018-11-03T07:00:07.127Z,13.62
2018-11-03T07:02:35.698Z,12.68
2018-11-03T07:05:04.643Z,13.75
2018-11-03T07:07:33.234Z,13.50
2018-11-03T07:10:01.790Z,13.30
2018-11-03T07:12:30.544Z,13.43
2018-11-03T07:14:58.974Z,12.93
2018-11-03T07:17:27.515Z,13.95
2018-11-03T07:19:56.096Z,13.58
2018-11-03T07:22:24.691Z,12.28
2018-11-03T07:24:53.261Z,13.43
2018-11-03T07:27:21.855Z,12.70
2018-11-03T07:29:50.437Z,12.30
2018-11-03T07:32:18.952Z,12.05
2018-11-03T07:34:47.633Z,10.70
2018-11-03T07:37:16.157Z,12.47
2018-11-03T07:39:44.729Z,11.25
2018-11-03T07:42:13.400Z,11.05
2018-11-03T07:44:41.949Z,12.40
2018-11-03T07:47:10.498Z,11.53
2018-11-03T07:49:39.044Z,11.70
2018-11-03T07:52:07.650Z,11.68
2018-11-03T07:54:36.207Z,10.43
2018-11-03T07:57:04.826Z,11.78
2018-11-03T07:59:33.393Z,11.67
2018-11-03T08:02:02.133Z,10.38
2018-11-03T08:04:30.917Z,11.95
2018-11-03T08:06:59.484Z,10.88
2018-11-03T08:09:28.089Z,11.13
2018-11-03T08:11:56.757Z,11.63
2018-11-03T08:14:25.389Z,10.45
2018-11-03T08:16:53.942Z,12.20
2018-11-03T08:19:22.685Z,10.30
2018-11-03T08:21:51.393Z,10.60
2018-11-03T08:24:20.129Z,11.27
2018-11-03T08:26:48.722Z,10.83
2018-11-03T08:29:17.298Z,11.00
2018-11-03T08:31:45.902Z,10.20
2018-11-03T08:34:14.487Z,11.10
2018-11-03T08:36:43.101Z,11.10
2018-11-03T08:39:12.154Z,12.20
2018-11-03T08:41:40.864Z,11.77
2018-11-03T08:44:09.654Z,11.13
2018-11-03T08:46:38.313Z,11.17
2018-11-03T08:49:07.216Z,10.70
2018-11-03T08:51:35.825Z,11.70
2018-11-03T08:54:04.557Z,9.70
2018-11-03T08:56:33.112Z,9.57
2018-11-03T08:59:01.685Z,9.80
2018-11-03T09:01:30.193Z,9.20
2018-11-03T09:03:58.765Z,9.33
2018-11-03T09:06:27.480Z,9.67
2018-11-03T09:08:56.085Z,8.93
2018-11-03T09:11:24.720Z,9.57
2018-11-03T09:13:53.489Z,9.40
2018-11-03T09:16:22.098Z,8.40
2018-11-03T09:18:50.607Z,10.17
2018-11-03T09:21:19.207Z,9.27
2018-11-03T09:23:47.825Z,9.80
2018-11-03T09:26:16.408Z,10.67
2018-11-03T09:28:45.003Z,9.37
2018-11-03T09:31:13.782Z,9.93
2018-11-03T09:33:42.470Z,9.77
2018-11-03T09:36:11.120Z,10.30
2018-11-03T09:38:39.766Z,10.40
2018-11-03T09:41:08.324Z,10.57
2018-11-03T09:43:36.921Z,11.00
2018-11-03T09:46:06.833Z,10.50
2018-11-03T09:48:35.507Z,9.13
2018-11-03T09:51:04.199Z,10.10
2018-11-03T09:53:32.992Z,9.93
2018-11-03T09:56:01.654Z,9.30
2018-11-03T09:58:30.225Z,9.43
2018-11-03T10:00:58.757Z,10.43
2018-11-03T10:03:27.620Z,10.47
2018-11-03T10:05:56.406Z,9.33
2018-11-03T10:08:25.270Z,10.50
2018-11-03T10:10:53.871Z,10.13
2018-11-03T10:13:22.635Z,10.10
2018-11-03T10:15:51.308Z,9.93
2018-11-03T10:18:19.967Z,10.23
2018-11-03T10:20:48.610Z,10.17
2018-11-03T10:23:17.357Z,9.70
2018-11-03T10:25:46.119Z,9.93
2018-11-03T10:28:14.651Z,9.77
2018-11-03T10:30:43.571Z,9.93
2018-11-03T10:33:12.147Z,10.03
2018-11-03T10:35:40.761Z,10.20
2018-11-03T10:38:09.400Z,9.47
2018-11-03T10:40:37.985Z,10.57
2018-11-03T10:43:06.780Z,9.03
2018-11-03T10:45:35.427Z,10.00
2018-11-03T10:48:04.005Z,11.07
2018-11-03T10:50:32.640Z,10.33
2018-11-03T10:53:01.177Z,11.43
2018-11-03T10:55:30.051Z,11.30
2018-11-03T10:57:58.610Z,9.80
2018-11-03T11:00:32.469Z,9.23
2018-11-03T11:03:06.177Z,11.17
2018-11-03T11:05:39.320Z,9.23
2018-11-03T11:08:13.267Z,10.10
2018-11-03T11:10:47.132Z,10.07
2018-11-03T11:13:24.865Z,9.73
2018-11-03T11:15:55.337Z,9.00
2018-11-03T11:18:23.944Z,9.10
2018-11-03T11:20:52.653Z,10.30
2018-11-03T11:23:21.267Z,10.03
2018-11-03T11:25:49.899Z,9.90
2018-11-03T11:28:18.572Z,10.00
2018-11-03T11:30:47.441Z,10.20
2018-11-03T11:33:17.158Z,10.63
2018-11-03T11:35:45.738Z,10.07
2018-11-03T11:38:14.972Z,9.90
2018-11-03T11:40:43.890Z,10.63
2018-11-03T11:43:13.632Z,9.30
2018-11-03T11:45:42.126Z,9.63
2018-11-03T11:48:10.956Z,9.83
2018-11-03T11:50:39.576Z,9.43
2018-11-03T11:53:08.470Z,10.40
2018-11-03T11:55:37.034Z,9.47
2018-11-03T11:58:06.248Z,8.80
2018-11-03T12:00:34.893Z,9.70
2018-11-03T12:03:04.193Z,10.13
2018-11-03T12:05:32.905Z,9.80
2018-11-03T12:08:01.507Z,10.33
2018-11-03T12:10:30.412Z,10.97
2018-11-03T12:12:59.194Z,9.77
2018-11-03T12:15:27.791Z,9.67
2018-11-03T12:17:56.462Z,10.80
2018-11-03T12:20:25.106Z,9.90
2018-11-03T12:22:53.777Z,10.40
2018-11-03T12:25:22.396Z,9.70
2018-11-03T12:27:50.976Z,10.80
2018-11-03T12:30:19.561Z,9.80
2018-11-03T12:32:48.202Z,8.67
2018-11-03T12:35:16.869Z,10.00
2018-11-03T12:37:45.484Z,10.00
2018-11-03T12:40:15.322Z,10.43
2018-11-03T12:42:43.920Z,10.60
2018-11-03T12:45:13.228Z,12.20
2018-11-03T12:47:42.357Z,9.33
2018-11-03T12:50:13.733Z,10.63
2018-11-03T12:52:42.396Z,9.70
2018-11-03T12:55:11.661Z,10.97
2018-11-03T12:57:40.913Z,10.80
2018-11-03T13:00:12.277Z,9.83
2018-11-03T13:02:41.963Z,10.30
2018-11-03T13:05:10.872Z,11.40
2018-11-03T13:07:40.574Z,12.27
2018-11-03T13:10:09.992Z,10.83
2018-11-03T13:12:39.457Z,11.57
2018-11-03T13:15:09.600Z,11.97
2018-11-03T13:17:38.283Z,10.10
2018-11-03T13:20:08.493Z,11.50
2018-11-03T13:22:37.104Z,11.13
2018-11-03T13:25:06.602Z,11.13
2018-11-03T13:27:35.269Z,11.97
2018-11-03T13:30:03.894Z,11.57
2018-11-03T13:32:32.542Z,10.40
2018-11-03T13:35:01.246Z,10.73
2018-11-03T13:37:29.796Z,12.53
2018-11-03T13:39:58.363Z,12.03
2018-11-03T13:42:26.950Z,11.10
2018-11-03T13:44:55.531Z,11.23
2018-11-03T13:47:24.367Z,12.43
2018-11-03T13:49:52.879Z,11.23
2018-11-03T13:52:21.423Z,12.53
2018-11-03T13:54:50.073Z,13.23
2018-11-03T13:57:18.689Z,14.30
2018-11-03T13:59:47.641Z,13.83
2018-11-03T14:02:16.229Z,14.03
2018-11-03T14:04:44.790Z,13.10
2018-11-03T14:07:13.521Z,13.33
2018-11-03T14:09:42.176Z,14.03
2018-11-03T14:12:10.798Z,13.57
2018-11-03T14:14:39.420Z,13.83
2018-11-03T14:17:08.061Z,13.77
2018-11-03T14:19:36.715Z,13.93
2018-11-03T14:22:05.590Z,14.23
2018-11-03T14:24:34.289Z,13.47
2018-11-03T14:27:02.911Z,11.63
2018-11-03T14:29:31.556Z,12.70
2018-11-03T14:32:00.317Z,13.87
2018-11-03T14:34:29.066Z,14.97
2018-11-03T14:36:57.874Z,11.43
2018-11-03T14:39:26.485Z,13.17
2018-11-03T14:41:55.327Z,12.17
2018-11-03T14:44:24.229Z,13.00
2018-11-03T14:46:52.951Z,12.87
2018-11-03T14:49:21.837Z,11.93
2018-11-03T14:51:50.503Z,13.07
2018-11-03T14:54:19.153Z,12.60
2018-11-03T14:56:47.914Z,12.90
2018-11-03T14:59:16.384Z,12.27
2018-11-03T15:01:45.007Z,11.43
2018-11-03T15:04:13.633Z,13.03
2018-11-03T15:06:42.336Z,12.23
2018-11-03T15:09:10.925Z,12.43
2018-11-03T15:11:39.698Z,13.70
2018-11-03T15:14:09.590Z,14.03
2018-11-03T15:16:38.524Z,11.83
2018-11-03T15:19:07.170Z,12.30
2018-11-03T15:21:35.881Z,12.13
2018-11-03T15:24:04.503Z,11.97
2018-11-03T15:26:33.258Z,12.17
2018-11-03T15:29:01.899Z,12.70
2018-11-03T15:31:30.466Z,12.17
2018-11-03T15:33:59.153Z,12.20
2018-11-03T15:36:27.906Z,12.90
2018-11-03T15:38:56.625Z,11.93
2018-11-03T15:41:25.251Z,14.20
2018-11-03T15:43:53.821Z,12.03
2018-11-03T15:46:22.405Z,11.60
2018-11-03T15:48:51.153Z,12.40
2018-11-03T15:51:19.890Z,12.27
2018-11-03T15:53:48.621Z,12.90
2018-11-03T15:56:17.176Z,11.00
2018-11-03T15:58:45.869Z,12.60
2018-11-03T16:01:14.566Z,13.60
2018-11-03T16:03:43.165Z,13.80
2018-11-03T16:06:11.742Z,12.00
2018-11-03T16:08:40.438Z,12.67
2018-11-03T16:11:09.111Z,13.37
2018-11-03T16:13:37.719Z,12.97
2018-11-03T16:16:06.328Z,13.97
2018-11-03T16:18:34.902Z,13.23
2018-11-03T16:21:03.531Z,12.13
2018-11-03T16:23:32.212Z,13.30
2018-11-03T16:26:00.979Z,13.80
2018-11-03T16:28:29.560Z,13.17
2018-11-03T16:30:58.122Z,13.03
2018-11-03T16:33:26.719Z,12.50
2018-11-03T16:35:55.406Z,13.00
2018-11-03T16:38:24.046Z,12.73
2018-11-03T16:40:52.637Z,13.60
2018-11-03T16:43:21.237Z,12.70
2018-11-03T16:45:49.973Z,11.73
2018-11-03T16:48:18.518Z,12.20
2018-11-03T16:50:47.162Z,13.57
2018-11-03T16:53:15.768Z,14.57
2018-11-03T16:55:44.406Z,13.10
2018-11-03T16:58:12.993Z,12.93
2018-11-03T17:00:41.602Z,13.67
2018-11-03T17:03:10.142Z,13.50
2018-11-03T17:05:38.782Z,13.60
2018-11-03T17:08:07.437Z,12.47
2018-11-03T17:10:36.060Z,12.40
2018-11-03T17:13:04.800Z,13.20
2018-11-03T17:15:33.322Z,12.77
2018-11-03T17:18:01.942Z,14.03
2018-11-03T17:20:30.821Z,14.33
2018-11-03T17:22:59.503Z,13.80
2018-11-03T17:25:28.214Z,13.87
2018-11-03T17:27:56.863Z,12.00
2018-11-03T17:30:25.613Z,13.30
2018-11-03T17:32:54.181Z,14.40
2018-11-03T17:35:22.742Z,13.67
2018-11-03T17:37:51.388Z,13.23
2018-11-03T17:40:20.011Z,13.63
2018-11-03T17:42:48.569Z,14.13
2018-11-03T17:45:17.177Z,14.20
2018-11-03T17:47:45.833Z,13.20
2018-11-03T17:50:14.457Z,14.63
2018-11-03T17:52:43.002Z,13.40
2018-11-03T17:55:11.800Z,13.60
2018-11-03T17:57:40.625Z,14.77
2018-11-03T18:00:12.051Z,13.70
2018-11-03T18:02:40.782Z,14.10
2018-11-03T18:05:09.445Z,14.03
2018-11-03T18:07:38.313Z,14.83
2018-11-03T18:10:08.681Z,13.83
2018-11-03T18:12:37.250Z,12.73
2018-11-03T18:15:06.801Z,13.50
2018-11-03T18:17:35.347Z,14.60
2018-11-03T18:20:04.337Z,13.23
2018-11-03T18:22:33.070Z,13.40
2018-11-03T18:25:01.752Z,13.87
2018-11-03T18:27:30.435Z,14.67
2018-11-03T18:29:59.191Z,13.53
2018-11-03T18:32:27.750Z,14.00
2018-11-03T18:34:56.418Z,14.33
2018-11-03T18:37:25.023Z,14.77
2018-11-03T18:39:53.609Z,16.77
2018-11-03T18:42:22.249Z,16.70
2018-11-03T18:44:50.919Z,16.30
2018-11-03T18:47:19.534Z,15.67
2018-11-03T18:49:48.303Z,14.60
2018-11-03T18:52:16.913Z,15.60
2018-11-03T18:54:45.638Z,15.10
2018-11-03T18:57:14.222Z,15.60
2018-11-03T18:59:42.919Z,15.80
2018-11-03T19:02:11.621Z,15.83
2018-11-03T19:04:40.166Z,15.90
2018-11-03T19:07:08.825Z,15.10
2018-11-03T19:09:37.463Z,17.00
2018-11-03T19:12:06.659Z,16.17
2018-11-03T19:14:35.700Z,16.10
2018-11-03T19:17:04.559Z,16.17
2018-11-03T19:19:33.106Z,17.07
2018-11-03T19:22:01.658Z,16.47
2018-11-03T19:24:30.218Z,16.43
2018-11-03T19:26:58.911Z,17.60
2018-11-03T19:29:27.510Z,18.50
2018-11-03T19:31:56.247Z,17.80
2018-11-03T19:34:24.834Z,18.27
2018-11-03T19:36:53.446Z,17.77
2018-11-03T19:39:22.018Z,19.83
2018-11-03T19:41:50.766Z,17.73
2018-11-03T19:44:19.361Z,21.37
2018-11-03T19:46:47.944Z,20.77
2018-11-03T19:49:16.610Z,19.63
2018-11-03T19:51:45.277Z,23.50
2018-11-03T19:54:14.338Z,21.97
2018-11-03T19:56:42.927Z,21.93
2018-11-03T19:59:11.589Z,20.93
2018-11-03T20:01:40.257Z,20.53
2018-11-03T20:04:08.798Z,21.37
2018-11-03T20:06:37.402Z,21.87
2018-11-03T20:09:07.286Z,18.70
2018-11-03T20:11:36.138Z,22.73
2018-11-03T20:14:04.862Z,20.90
2018-11-03T20:16:34.096Z,20.70
2018-11-03T20:19:02.726Z,21.60
2018-11-03T20:21:31.370Z,19.63
2018-11-03T20:24:00.537Z,19.87
2018-11-03T20:26:29.167Z,19.80
2018-11-03T20:28:57.793Z,19.87
2018-11-03T20:31:26.373Z,19.63
2018-11-03T20:33:54.949Z,21.03
2018-11-03T20:36:23.635Z,20.00
2018-11-03T20:38:52.313Z,19.13
2018-11-03T20:41:20.995Z,19.23
2018-11-03T20:43:49.577Z,18.97
2018-11-03T20:46:18.302Z,20.67
2018-11-03T20:48:46.860Z,20.50
2018-11-03T20:51:15.473Z,21.17
2018-11-03T20:53:44.279Z,19.83
2018-11-03T20:56:12.840Z,20.20
2018-11-03T20:58:41.572Z,19.80
2018-11-03T21:01:10.210Z,21.87
2018-11-03T21:03:38.806Z,19.90
2018-11-03T21:06:07.434Z,20.30
2018-11-03T21:08:36.150Z,20.40
2018-11-03T21:11:04.830Z,22.00
2018-11-03T21:13:33.577Z,23.33
2018-11-03T21:16:02.113Z,23.23
2018-11-03T21:18:30.804Z,22.83
2018-11-03T21:20:59.478Z,22.67
2018-11-03T21:23:28.139Z,22.23
2018-11-03T21:25:57.184Z,21.60
2018-11-03T21:28:25.885Z,22.80
2018-11-03T21:30:54.668Z,22.10
2018-11-03T21:33:23.345Z,22.50
2018-11-03T21:35:52.053Z,23.97
2018-11-03T21:38:20.724Z,22.67
2018-11-03T21:40:49.283Z,21.33
2018-11-03T21:43:17.853Z,23.00
2018-11-03T21:45:46.462Z,24.60
2018-11-03T21:48:15.195Z,23.03
2018-11-03T21:50:43.754Z,24.10
2018-11-03T21:53:12.423Z,24.97
2018-11-03T21:55:41.004Z,24.43
2018-11-03T21:58:09.538Z,25.97
2018-11-03T22:00:38.229Z,26.07
2018-11-03T22:03:06.782Z,28.20
2018-11-03T22:05:35.369Z,27.13
2018-11-03T22:08:04.056Z,27.43
2018-11-03T22:10:32.824Z,28.03
2018-11-03T22:13:01.586Z,26.27
2018-11-03T22:15:30.253Z,28.00
2018-11-03T22:17:58.921Z,27.97
2018-11-03T22:20:27.503Z,28.60
2018-11-03T22:22:56.230Z,27.77
2018-11-03T22:25:24.801Z,29.37
2018-11-03T22:27:53.521Z,29.37
2018-11-03T22:30:22.111Z,27.53
2018-11-03T22:32:50.705Z,29.90
2018-11-03T22:35:19.255Z,28.30
2018-11-03T22:37:47.869Z,29.03
2018-11-03T22:40:16.450Z,30.20
2018-11-03T22:42:45.049Z,29.12
2018-11-03T22:45:13.667Z,30.87
2018-11-03T22:47:42.339Z,28.40
2018-11-03T22:50:11.005Z,31.23
2018-11-03T22:52:39.669Z,26.17
2018-11-03T22:55:08.314Z,27.30
2018-11-03T22:57:36.981Z,24.37
2018-11-03T23:00:07.506Z,21.80
2018-11-03T23:02:36.073Z,19.37
2018-11-03T23:05:05.123Z,18.80
2018-11-03T23:07:33.680Z,18.60
2018-11-03T23:10:02.385Z,18.90
2018-11-03T23:12:31.242Z,20.07
2018-11-03T23:14:59.640Z,19.73
2018-11-03T23:17:28.191Z,18.30
2018-11-03T23:19:56.771Z,19.90
2018-11-03T23:22:25.425Z,18.70
2018-11-03T23:24:54.117Z,20.37
2018-11-03T23:27:22.742Z,21.97
2018-11-03T23:29:51.523Z,20.93
2018-11-03T23:32:20.131Z,21.97
2018-11-03T23:34:48.671Z,23.17
2018-11-03T23:37:17.412Z,24.27
2018-11-03T23:39:46.103Z,23.35
2018-11-03T23:42:14.639Z,23.53
2018-11-03T23:44:43.254Z,23.00
2018-11-03T23:47:11.822Z,22.70
2018-11-03T23:49:40.400Z,24.72
2018-11-03T23:52:08.965Z,23.53
2018-11-03T23:54:37.493Z,22.98
2018-11-03T23:57:06.319Z,18.57
2018-11-03T23:59:35.040Z,18.07
